KLUF/LUF METAR and TAF weather

Enter ICAO airport designator
Station Type Date Time Source
KLUF METAR 2018/12/19 08:58 UTC NOAA

KLUF 190858Z AUTO 00000KT 10SM CLR 07/02 A3010 RMK AO2 SLP191 T00720021 58002


Station Type Date Time Source
KLUF Decoded METAR 2018/12/19 08:58 UTC NOAA

Luke Air Force Base / Phoenix, AZ, United States (KLUF) 33-32N 112-23W 332M
Dec 19, 2018 - 03:58 AM EST / 2018.12.19 0858 UTC
Wind: Calm:0
Visibility: 10 mile(s):0
Sky conditions: clear
Temperature: 45.0 F (7.2 C)
Dew Point: 35.8 F (2.1 C)
Relative Humidity: 69%
Pressure (altimeter): 30.1 in. Hg (1019 hPa)
Pressure tendency: 0.01 inches (0.2 hPa) lower than three hours ago
ob: KLUF 190858Z AUTO 00000KT 10SM CLR 07/02 A3010 RMK AO2 SLP191 T00720021 58002
cycle: 9

Station Type Date Time Source
KLUF TAF 2018/12/19 03:12 UTC NOAA

TAF
AMD KLUF 190307Z 1903/2002 VRB06KT 9999 FEW200 QNH3007INS TX13/1903Z TN04/1915Z LAST NO
AMDS AFT 1903 NEXT 1912


Example: see airport list